This is the latest recevied weather packets stored in our database for station/object KD8JAM. If no packets are shown the sender has not sent any weather packets the latest 10 day(s).
| Time | Temp. | Humidity | Pressure | Rain* | Wind** | Luminosity | Snow |
|---|---|---|---|---|---|---|---|
| 1777822908 | 13.89° C | 70% | 1003.8 hPa | 0 mm | - | 863 W/m² | - |
| 1777822606 | 13.89° C | 71% | 1003.6 hPa | 0 mm | - | 284 W/m² | - |
| 1777822303 | 13.33° C | 72% | 1004 hPa | 0 mm | - | 629 W/m² | - |
| 1777822001 | 13.89° C | 71% | 1003.8 hPa | 0 mm | - | 445 W/m² | - |
| 1777821698 | 13.89° C | 70% | 1004.1 hPa | 0 mm | - | 604 W/m² | - |
| 1777821396 | 13.33° C | 70% | 1003.9 hPa | 0 mm | - | 543 W/m² | - |
| 1777821092 | 14.44° C | 69% | 1003.8 hPa | 0 mm | - | 501 W/m² | - |
| 1777820790 | 13.33° C | 70% | 1003.9 hPa | 0 mm | - | 775 W/m² | - |
| 1777820485 | 13.89° C | 70% | 1003.8 hPa | 0 mm | - | 725 W/m² | - |
| 1777820183 | 13.89° C | 69% | 1003.8 hPa | 0 mm | - | 556 W/m² | - |
| 1777819880 | 13.33° C | 71% | 1004 hPa | 0 mm | - | 818 W/m² | - |
| 1777819577 | 12.22° C | 73% | 1004 hPa | 0 mm | - | 362 W/m² | - |
| 1777819275 | 12.22° C | 74% | 1004 hPa | 0 mm | - | 279 W/m² | - |
| 1777818971 | 12.78° C | 74% | 1004.2 hPa | 0 mm | - | 263 W/m² | - |
| 1777818668 | 12.78° C | 74% | 1004.3 hPa | 0 mm | - | 321 W/m² | - |
| 1777818365 | 12.78° C | 72% | 1004.2 hPa | 0 mm | - | 245 W/m² | - |
| 1777818062 | 13.33° C | 70% | 1004.2 hPa | 0 mm | - | 317 W/m² | - |
| 1777817758 | 13.33° C | 70% | 1004.3 hPa | 0 mm | - | 348 W/m² | - |
| 1777817456 | 13.33° C | 70% | 1004.4 hPa | 0 mm | - | 482 W/m² | - |
| 1777817151 | 13.89° C | 69% | 1004.5 hPa | 0 mm | - | 495 W/m² | - |
| 1777816850 | 12.78° C | 71% | 1004.5 hPa | 0 mm | - | 399 W/m² | - |
| 1777816547 | 12.78° C | 71% | 1004.4 hPa | 0 mm | - | 437 W/m² | - |
| 1777816244 | 12.78° C | 71% | 1004.5 hPa | 0 mm | - | 331 W/m² | - |
| 1777815941 | 12.22° C | 72% | 1004.5 hPa | 0 mm | - | 272 W/m² | - |
| 1777815638 | 12.78° C | 71% | 1004.5 hPa | 0 mm | - | 131 W/m² | - |
* Rain latest hour (hover to see other rain measurements)
** Current wind speed in m/s (hover to see current wind gust speed)